sensor_id;sensor_type;location;lat;lon;timestamp;pressure;altitude;pressure_sealevel;temperature;humidity
36254;BME280;22291;52.250;21.228;2023-04-20T00:01:25;100613.50;;;8.27;82.51
36254;BME280;22291;52.250;21.228;2023-04-20T00:03:52;100607.31;;;8.26;82.75
36254;BME280;22291;52.250;21.228;2023-04-20T00:06:18;100612.42;;;8.28;82.70
36254;BME280;22291;52.250;21.228;2023-04-20T00:08:46;100608.11;;;8.27;82.96
36254;BME280;22291;52.250;21.228;2023-04-20T00:11:12;100608.62;;;8.29;83.10
36254;BME280;22291;52.250;21.228;2023-04-20T00:13:38;100608.89;;;8.30;83.21
36254;BME280;22291;52.250;21.228;2023-04-20T00:16:05;100609.40;;;8.32;83.43
36254;BME280;22291;52.250;21.228;2023-04-20T00:18:32;100604.28;;;8.33;83.35
36254;BME280;22291;52.250;21.228;2023-04-20T00:20:58;100605.34;;;8.34;83.76
36254;BME280;22291;52.250;21.228;2023-04-20T00:23:24;100602.61;;;8.37;83.69
36254;BME280;22291;52.250;21.228;2023-04-20T00:25:50;100602.87;;;8.38;83.80
36254;BME280;22291;52.250;21.228;2023-04-20T00:28:17;100603.39;;;8.40;83.86
36254;BME280;22291;52.250;21.228;2023-04-20T00:30:43;100601.75;;;8.41;83.93
36254;BME280;22291;52.250;21.228;2023-04-20T00:33:09;100604.44;;;8.44;84.07
36254;BME280;22291;52.250;21.228;2023-04-20T00:35:35;100612.24;;;8.46;83.91
36254;BME280;22291;52.250;21.228;2023-04-20T00:38:02;100607.13;;;8.47;83.87
36254;BME280;22291;52.250;21.228;2023-04-20T00:40:28;100609.77;;;8.49;83.98
36254;BME280;22291;52.250;21.228;2023-04-20T00:42:55;100609.25;;;8.50;83.97
36254;BME280;22291;52.250;21.228;2023-04-20T00:45:22;100605.73;;;8.49;83.83
36254;BME280;22291;52.250;21.228;2023-04-20T00:47:48;100615.44;;;8.50;83.90
36254;BME280;22291;52.250;21.228;2023-04-20T00:50:16;100610.31;;;8.51;83.98
36254;BME280;22291;52.250;21.228;2023-04-20T00:52:43;100611.34;;;8.53;83.92
36254;BME280;22291;52.250;21.228;2023-04-20T00:55:10;100615.93;;;8.55;83.85
36254;BME280;22291;52.250;21.228;2023-04-20T00:57:37;100610.78;;;8.56;83.89
36254;BME280;22291;52.250;21.228;2023-04-20T01:00:05;100612.64;;;8.58;83.88
36254;BME280;22291;52.250;21.228;2023-04-20T01:02:33;100615.89;;;8.57;83.82
36254;BME280;22291;52.250;21.228;2023-04-20T01:04:59;100608.07;;;8.58;83.87
36254;BME280;22291;52.250;21.228;2023-04-20T01:07:26;100610.77;;;8.58;84.01
36254;BME280;22291;52.250;21.228;2023-04-20T01:09:54;100608.58;;;8.60;83.98
36254;BME280;22291;52.250;21.228;2023-04-20T01:12:21;100606.15;;;8.62;83.95
36254;BME280;22291;52.250;21.228;2023-04-20T01:14:47;100616.09;;;8.64;84.19
36254;BME280;22291;52.250;21.228;2023-04-20T01:17:13;100607.19;;;8.63;84.17
36254;BME280;22291;52.250;21.228;2023-04-20T01:19:40;100606.37;;;8.65;84.09
36254;BME280;22291;52.250;21.228;2023-04-20T01:22:07;100606.90;;;8.65;83.99
36254;BME280;22291;52.250;21.228;2023-04-20T01:24:33;100606.37;;;8.65;83.93
36254;BME280;22291;52.250;21.228;2023-04-20T01:26:59;100603.39;;;8.67;83.93
36254;BME280;22291;52.250;21.228;2023-04-20T01:29:26;100599.34;;;8.67;83.87
36254;BME280;22291;52.250;21.228;2023-04-20T01:31:52;100602.05;;;8.67;83.74
36254;BME280;22291;52.250;21.228;2023-04-20T01:34:19;100603.08;;;8.68;83.72
36254;BME280;22291;52.250;21.228;2023-04-20T01:36:45;100596.09;;;8.67;83.77
36254;BME280;22291;52.250;21.228;2023-04-20T01:39:11;100602.55;;;8.69;83.73
36254;BME280;22291;52.250;21.228;2023-04-20T01:41:38;100601.73;;;8.68;83.57
36254;BME280;22291;52.250;21.228;2023-04-20T01:44:05;100608.19;;;8.70;83.73
36254;BME280;22291;52.250;21.228;2023-04-20T01:46:32;100604.14;;;8.70;83.70
36254;BME280;22291;52.250;21.228;2023-04-20T01:48:58;100601.20;;;8.69;83.53
36254;BME280;22291;52.250;21.228;2023-04-20T01:51:24;100599.30;;;8.69;83.64
36254;BME280;22291;52.250;21.228;2023-04-20T01:53:50;100599.86;;;8.69;83.70
36254;BME280;22291;52.250;21.228;2023-04-20T01:56:16;100604.14;;;8.70;83.68
36254;BME280;22291;52.250;21.228;2023-04-20T01:58:42;100593.36;;;8.70;83.77
36254;BME280;22291;52.250;21.228;2023-04-20T02:01:09;100596.05;;;8.70;83.76
36254;BME280;22291;52.250;21.228;2023-04-20T02:03:35;100593.64;;;8.68;83.49
36254;BME280;22291;52.250;21.228;2023-04-20T02:06:01;100601.20;;;8.69;83.51
36254;BME280;22291;52.250;21.228;2023-04-20T02:08:28;100609.30;;;8.69;83.61
36254;BME280;22291;52.250;21.228;2023-04-20T02:10:54;100607.39;;;8.69;83.60
36254;BME280;22291;52.250;21.228;2023-04-20T02:13:20;100603.08;;;8.68;83.53
36254;BME280;22291;52.250;21.228;2023-04-20T02:15:46;100593.97;;;8.64;83.57
36254;BME280;22291;52.250;21.228;2023-04-20T02:18:12;100603.08;;;8.68;83.52
36254;BME280;22291;52.250;21.228;2023-04-20T02:20:41;100601.48;;;8.67;83.48
36254;BME280;22291;52.250;21.228;2023-04-20T02:23:09;100603.39;;;8.67;83.44
36254;BME280;22291;52.250;21.228;2023-04-20T02:25:36;100603.92;;;8.66;83.30
36254;BME280;22291;52.250;21.228;2023-04-20T02:28:03;100605.02;;;8.65;83.31
36254;BME280;22291;52.250;21.228;2023-04-20T02:30:30;100601.27;;;8.64;83.28
36254;BME280;22291;52.250;21.228;2023-04-20T02:32:56;100601.27;;;8.64;83.12
36254;BME280;22291;52.250;21.228;2023-04-20T02:35:22;100600.76;;;8.62;83.14
36254;BME280;22291;52.250;21.228;2023-04-20T02:37:49;100601.28;;;8.61;83.03
36254;BME280;22291;52.250;21.228;2023-04-20T02:40:15;100600.50;;;8.58;83.03
36254;BME280;22291;52.250;21.228;2023-04-20T02:42:42;100600.27;;;8.57;83.09
36254;BME280;22291;52.250;21.228;2023-04-20T02:45:09;100597.56;;;8.57;83.20
36254;BME280;22291;52.250;21.228;2023-04-20T02:47:36;100608.08;;;8.56;83.14
36254;BME280;22291;52.250;21.228;2023-04-20T02:50:03;100605.14;;;8.55;83.26
36254;BME280;22291;52.250;21.228;2023-04-20T02:52:30;100601.39;;;8.53;83.29
36254;BME280;22291;52.250;21.228;2023-04-20T02:54:57;100608.92;;;8.54;83.41
36254;BME280;22291;52.250;21.228;2023-04-20T02:57:23;100603.53;;;8.54;83.43
36254;BME280;22291;52.250;21.228;2023-04-20T02:59:50;100604.33;;;8.54;83.51
36254;BME280;22291;52.250;21.228;2023-04-20T03:02:16;100609.48;;;8.53;83.51
36254;BME280;22291;52.250;21.228;2023-04-20T03:04:43;100605.16;;;8.52;83.52
36254;BME280;22291;52.250;21.228;2023-04-20T03:07:09;100610.00;;;8.53;83.59
36254;BME280;22291;52.250;21.228;2023-04-20T03:09:36;100613.52;;;8.53;83.64
36254;BME280;22291;52.250;21.228;2023-04-20T03:12:04;100607.06;;;8.52;83.70
36254;BME280;22291;52.250;21.228;2023-04-20T03:14:31;100611.06;;;8.54;83.77
36254;BME280;22291;52.250;21.228;2023-04-20T03:16:57;100604.88;;;8.54;83.72
36254;BME280;22291;52.250;21.228;2023-04-20T03:19:23;100611.06;;;8.54;83.70
36254;BME280;22291;52.250;21.228;2023-04-20T03:21:49;100607.30;;;8.53;83.53
36254;BME280;22291;52.250;21.228;2023-04-20T03:24:16;100606.27;;;8.51;83.41
36254;BME280;22291;52.250;21.228;2023-04-20T03:26:42;100602.80;;;8.48;83.41
36254;BME280;22291;52.250;21.228;2023-04-20T03:29:09;100603.60;;;8.46;83.32
36254;BME280;22291;52.250;21.228;2023-04-20T03:31:35;100612.28;;;8.43;83.27
36254;BME280;22291;52.250;21.228;2023-04-20T03:34:01;100615.23;;;8.41;83.17
36254;BME280;22291;52.250;21.228;2023-04-20T03:36:27;100619.30;;;8.39;83.29
36254;BME280;22291;52.250;21.228;2023-04-20T03:38:54;100620.92;;;8.37;83.39
36254;BME280;22291;52.250;21.228;2023-04-20T03:41:20;100613.12;;;8.36;83.37
36254;BME280;22291;52.250;21.228;2023-04-20T03:43:47;100613.16;;;8.33;83.34
36254;BME280;22291;52.250;21.228;2023-04-20T03:46:13;100615.58;;;8.32;83.45
36254;BME280;22291;52.250;21.228;2023-04-20T03:48:39;100615.08;;;8.30;83.47
36254;BME280;22291;52.250;21.228;2023-04-20T03:51:05;100621.26;;;8.31;83.63
36254;BME280;22291;52.250;21.228;2023-04-20T03:53:31;100629.89;;;8.30;83.79
36254;BME280;22291;52.250;21.228;2023-04-20T03:55:58;100625.61;;;8.29;83.83
36254;BME280;22291;52.250;21.228;2023-04-20T03:58:24;100625.86;;;8.30;83.93
36254;BME280;22291;52.250;21.228;2023-04-20T04:00:50;100629.34;;;8.31;84.00
36254;BME280;22291;52.250;21.228;2023-04-20T04:03:17;100630.41;;;8.32;84.13
36254;BME280;22291;52.250;21.228;2023-04-20T04:05:43;100635.52;;;8.34;84.10
36254;BME280;22291;52.250;21.228;2023-04-20T04:08:09;100630.68;;;8.33;84.08
36254;BME280;22291;52.250;21.228;2023-04-20T04:10:35;100634.68;;;8.36;84.12
36254;BME280;22291;52.250;21.228;2023-04-20T04:13:01;100630.91;;;8.37;84.10
36254;BME280;22291;52.250;21.228;2023-04-20T04:15:27;100634.39;;;8.40;84.24
36254;BME280;22291;52.250;21.228;2023-04-20T04:17:54;100634.63;;;8.41;84.37
36254;BME280;22291;52.250;21.228;2023-04-20T04:20:21;100638.42;;;8.43;84.37
36254;BME280;22291;52.250;21.228;2023-04-20T04:22:47;100637.06;;;8.45;84.51
36254;BME280;22291;52.250;21.228;2023-04-20T04:25:13;100638.13;;;8.47;84.52
36254;BME280;22291;52.250;21.228;2023-04-20T04:27:39;100637.56;;;8.50;84.48
36254;BME280;22291;52.250;21.228;2023-04-20T04:30:07;100632.69;;;8.49;84.59
36254;BME280;22291;52.250;21.228;2023-04-20T04:32:35;100637.23;;;8.54;84.85
36254;BME280;22291;52.250;21.228;2023-04-20T04:35:02;100638.30;;;8.55;84.98
36254;BME280;22291;52.250;21.228;2023-04-20T04:37:29;100651.99;;;8.62;85.23
36254;BME280;22291;52.250;21.228;2023-04-20T04:39:55;100655.42;;;8.67;85.54
36254;BME280;22291;52.250;21.228;2023-04-20T04:42:23;100651.32;;;8.72;85.64
36254;BME280;22291;52.250;21.228;2023-04-20T04:44:49;100657.16;;;8.79;85.51
36254;BME280;22291;52.250;21.228;2023-04-20T04:47:17;100655.25;;;8.83;85.28
36254;BME280;22291;52.250;21.228;2023-04-20T04:49:45;100660.30;;;8.89;85.36
36254;BME280;22291;52.250;21.228;2023-04-20T04:52:11;100656.73;;;8.94;85.33
36254;BME280;22291;52.250;21.228;2023-04-20T04:54:38;100657.20;;;8.98;85.50
36254;BME280;22291;52.250;21.228;2023-04-20T04:57:04;100664.37;;;9.08;85.71
36254;BME280;22291;52.250;21.228;2023-04-20T04:59:30;100665.08;;;9.16;85.66
36254;BME280;22291;52.250;21.228;2023-04-20T05:01:56;100670.63;;;9.25;85.35
36254;BME280;22291;52.250;21.228;2023-04-20T05:04:23;100675.09;;;9.35;85.19
36254;BME280;22291;52.250;21.228;2023-04-20T05:06:49;100668.48;;;9.44;85.47
36254;BME280;22291;52.250;21.228;2023-04-20T05:09:15;100674.03;;;9.52;85.42
36254;BME280;22291;52.250;21.228;2023-04-20T05:11:41;100673.59;;;9.64;85.42
36254;BME280;22291;52.250;21.228;2023-04-20T05:14:07;100679.11;;;9.76;85.75
36254;BME280;22291;52.250;21.228;2023-04-20T05:16:33;100684.59;;;9.87;84.93
36254;BME280;22291;52.250;21.228;2023-04-20T05:18:59;100673.91;;;9.96;84.59
36254;BME280;22291;52.250;21.228;2023-04-20T05:21:26;100676.50;;;10.03;84.13
36254;BME280;22291;52.250;21.228;2023-04-20T05:23:53;100680.47;;;10.08;83.45
36254;BME280;22291;52.250;21.228;2023-04-20T05:26:19;100679.03;;;10.14;83.29
36254;BME280;22291;52.250;21.228;2023-04-20T05:28:46;100687.84;;;10.19;82.82
36254;BME280;22291;52.250;21.228;2023-04-20T05:31:13;100685.34;;;10.23;82.89
36254;BME280;22291;52.250;21.228;2023-04-20T05:33:40;100690.38;;;10.29;82.89
36254;BME280;22291;52.250;21.228;2023-04-20T05:36:09;100687.61;;;10.35;82.71
36254;BME280;22291;52.250;21.228;2023-04-20T05:38:35;100691.28;;;10.41;82.51
36254;BME280;22291;52.250;21.228;2023-04-20T05:41:03;100696.59;;;10.46;82.21
36254;BME280;22291;52.250;21.228;2023-04-20T05:43:31;100694.06;;;10.53;82.18
36254;BME280;22291;52.250;21.228;2023-04-20T05:45:58;100692.35;;;10.57;81.68
36254;BME280;22291;52.250;21.228;2023-04-20T05:48:24;100696.02;;;10.63;81.56
36254;BME280;22291;52.250;21.228;2023-04-20T05:50:53;100700.17;;;10.72;81.68
36254;BME280;22291;52.250;21.228;2023-04-20T05:53:20;100700.18;;;10.86;81.74
36254;BME280;22291;52.250;21.228;2023-04-20T05:55:46;100702.05;;;11.02;81.45
36254;BME280;22291;52.250;21.228;2023-04-20T05:58:13;100704.94;;;11.19;81.53
36254;BME280;22291;52.250;21.228;2023-04-20T06:00:40;100710.22;;;11.38;81.09
36254;BME280;22291;52.250;21.228;2023-04-20T06:03:06;100709.13;;;11.51;80.73
36254;BME280;22291;52.250;21.228;2023-04-20T06:05:32;100711.27;;;11.65;80.09
36254;BME280;22291;52.250;21.228;2023-04-20T06:07:59;100701.41;;;11.69;79.32
36254;BME280;22291;52.250;21.228;2023-04-20T06:10:25;100708.13;;;11.83;79.07
36254;BME280;22291;52.250;21.228;2023-04-20T06:12:52;100705.42;;;11.97;79.02
36254;BME280;22291;52.250;21.228;2023-04-20T06:15:18;100714.77;;;12.25;79.45
36254;BME280;22291;52.250;21.228;2023-04-20T06:17:44;100708.59;;;12.53;78.56
36254;BME280;22291;52.250;21.228;2023-04-20T06:20:11;100706.59;;;12.79;77.08
36254;BME280;22291;52.250;21.228;2023-04-20T06:22:43;100706.27;;;13.09;77.78
36254;BME280;22291;52.250;21.228;2023-04-20T06:25:10;100710.92;;;13.46;77.42
36254;BME280;22291;52.250;21.228;2023-04-20T06:27:38;100701.91;;;13.83;76.45
36254;BME280;22291;52.250;21.228;2023-04-20T06:30:06;100707.80;;;14.20;75.47
36254;BME280;22291;52.250;21.228;2023-04-20T06:32:33;100707.36;;;14.56;74.87
36254;BME280;22291;52.250;21.228;2023-04-20T06:34:59;100703.39;;;14.92;73.34
36254;BME280;22291;52.250;21.228;2023-04-20T06:37:25;100704.08;;;15.25;72.65
36254;BME280;22291;52.250;21.228;2023-04-20T06:39:53;100702.24;;;15.59;72.07
36254;BME280;22291;52.250;21.228;2023-04-20T06:42:20;100705.59;;;15.86;70.91
36254;BME280;22291;52.250;21.228;2023-04-20T06:44:47;100708.94;;;15.98;69.08
36254;BME280;22291;52.250;21.228;2023-04-20T06:47:13;100711.86;;;16.20;68.00
36254;BME280;22291;52.250;21.228;2023-04-20T06:49:39;100711.69;;;16.43;66.21
36254;BME280;22291;52.250;21.228;2023-04-20T06:52:06;100711.95;;;16.69;66.44
36254;BME280;22291;52.250;21.228;2023-04-20T06:54:32;100715.75;;;17.02;64.91
36254;BME280;22291;52.250;21.228;2023-04-20T06:56:59;100713.56;;;17.26;62.50
36254;BME280;22291;52.250;21.228;2023-04-20T06:59:26;100715.23;;;17.36;62.99
36254;BME280;22291;52.250;21.228;2023-04-20T07:01:52;100720.23;;;17.59;63.28
36254;BME280;22291;52.250;21.228;2023-04-20T07:04:18;100714.66;;;17.84;61.63
36254;BME280;22291;52.250;21.228;2023-04-20T07:06:45;100717.78;;;18.10;60.87
36254;BME280;22291;52.250;21.228;2023-04-20T07:09:13;100719.33;;;18.40;59.56
36254;BME280;22291;52.250;21.228;2023-04-20T07:11:39;100720.75;;;18.65;58.75
36254;BME280;22291;52.250;21.228;2023-04-20T07:14:05;100725.78;;;18.79;57.87
36254;BME280;22291;52.250;21.228;2023-04-20T07:16:31;100723.05;;;19.11;57.46
36254;BME280;22291;52.250;21.228;2023-04-20T07:18:58;100723.54;;;19.43;57.69
36254;BME280;22291;52.250;21.228;2023-04-20T07:21:24;100723.17;;;19.80;56.87
36254;BME280;22291;52.250;21.228;2023-04-20T07:23:51;100715.20;;;20.13;55.57
36254;BME280;22291;52.250;21.228;2023-04-20T07:26:18;100719.50;;;20.34;52.92
36254;BME280;22291;52.250;21.228;2023-04-20T07:28:44;100717.99;;;20.37;52.63
36254;BME280;22291;52.250;21.228;2023-04-20T07:31:10;100719.77;;;20.62;52.89
36254;BME280;22291;52.250;21.228;2023-04-20T07:33:36;100717.16;;;20.92;52.13
36254;BME280;22291;52.250;21.228;2023-04-20T07:36:02;100719.74;;;21.21;51.86
36254;BME280;22291;52.250;21.228;2023-04-20T07:38:29;100719.16;;;21.49;51.39
36254;BME280;22291;52.250;21.228;2023-04-20T07:40:55;100720.23;;;21.88;51.46
36254;BME280;22291;52.250;21.228;2023-04-20T07:43:22;100711.25;;;22.11;50.15
36254;BME280;22291;52.250;21.228;2023-04-20T07:45:48;100725.19;;;22.43;49.96
36254;BME280;22291;52.250;21.228;2023-04-20T07:48:14;100735.68;;;22.74;48.88
36254;BME280;22291;52.250;21.228;2023-04-20T07:50:40;100728.70;;;22.88;46.92
36254;BME280;22291;52.250;21.228;2023-04-20T07:53:07;100731.45;;;22.88;45.76
36254;BME280;22291;52.250;21.228;2023-04-20T07:55:33;100734.26;;;22.95;46.20
36254;BME280;22291;52.250;21.228;2023-04-20T07:58:00;100739.56;;;23.15;45.64
36254;BME280;22291;52.250;21.228;2023-04-20T08:00:27;100734.77;;;23.39;45.57
36254;BME280;22291;52.250;21.228;2023-04-20T08:02:53;100734.67;;;23.60;44.32
36254;BME280;22291;52.250;21.228;2023-04-20T08:05:20;100743.27;;;23.40;43.63
36254;BME280;22291;52.250;21.228;2023-04-20T08:07:47;100738.20;;;23.18;43.80
36254;BME280;22291;52.250;21.228;2023-04-20T08:10:13;100735.47;;;22.98;43.48
36254;BME280;22291;52.250;21.228;2023-04-20T08:12:39;100733.77;;;22.79;42.81
36254;BME280;22291;52.250;21.228;2023-04-20T08:15:08;100739.60;;;22.70;43.29
36254;BME280;22291;52.250;21.228;2023-04-20T08:17:34;100739.48;;;22.59;42.14
36254;BME280;22291;52.250;21.228;2023-04-20T08:20:01;100741.73;;;22.67;42.77
36254;BME280;22291;52.250;21.228;2023-04-20T08:22:29;100737.16;;;23.09;43.11
36254;BME280;22291;52.250;21.228;2023-04-20T08:24:57;100738.51;;;23.37;42.83
36254;BME280;22291;52.250;21.228;2023-04-20T08:27:24;100745.59;;;23.73;42.76
36254;BME280;22291;52.250;21.228;2023-04-20T08:29:52;100732.88;;;23.93;41.84
36254;BME280;22291;52.250;21.228;2023-04-20T08:32:18;100733.12;;;24.08;41.18
36254;BME280;22291;52.250;21.228;2023-04-20T08:34:47;100727.89;;;24.56;39.90
36254;BME280;22291;52.250;21.228;2023-04-20T08:37:14;100729.47;;;24.75;39.67
36254;BME280;22291;52.250;21.228;2023-04-20T08:39:40;100721.52;;;25.09;39.37
36254;BME280;22291;52.250;21.228;2023-04-20T08:42:07;100726.59;;;25.47;39.68
36254;BME280;22291;52.250;21.228;2023-04-20T08:44:33;100727.81;;;25.90;38.80
36254;BME280;22291;52.250;21.228;2023-04-20T08:46:59;100724.48;;;26.24;38.39
36254;BME280;22291;52.250;21.228;2023-04-20T08:49:27;100723.67;;;26.53;36.20
36254;BME280;22291;52.250;21.228;2023-04-20T08:51:54;100732.13;;;26.61;36.20
36254;BME280;22291;52.250;21.228;2023-04-20T08:54:21;100733.17;;;26.82;36.16
36254;BME280;22291;52.250;21.228;2023-04-20T08:56:47;100736.58;;;27.00;35.24
36254;BME280;22291;52.250;21.228;2023-04-20T08:59:14;100729.56;;;27.08;35.35
36254;BME280;22291;52.250;21.228;2023-04-20T09:01:43;100727.23;;;27.02;34.18
36254;BME280;22291;52.250;21.228;2023-04-20T09:04:20;100738.95;;;27.21;34.23
36254;BME280;22291;52.250;21.228;2023-04-20T09:06:50;100719.22;;;27.31;32.84
36254;BME280;22291;52.250;21.228;2023-04-20T09:09:19;100725.27;;;27.18;33.25
36254;BME280;22291;52.250;21.228;2023-04-20T09:11:47;100720.60;;;27.31;32.41
36254;BME280;22291;52.250;21.228;2023-04-20T09:14:29;100723.05;;;27.60;33.50
36254;BME280;22291;52.250;21.228;2023-04-20T09:16:59;100725.89;;;28.02;33.31
36254;BME280;22291;52.250;21.228;2023-04-20T09:19:28;100729.73;;;28.12;30.84
36254;BME280;22291;52.250;21.228;2023-04-20T09:21:58;100725.09;;;27.55;30.25
36254;BME280;22291;52.250;21.228;2023-04-20T09:24:32;100732.66;;;27.13;29.80
36254;BME280;22291;52.250;21.228;2023-04-20T09:27:00;100713.56;;;27.00;29.60
36254;BME280;22291;52.250;21.228;2023-04-20T09:29:28;100729.92;;;26.91;29.63
36254;BME280;22291;52.250;21.228;2023-04-20T09:31:56;100708.13;;;26.89;30.37
36254;BME280;22291;52.250;21.228;2023-04-20T09:34:23;100721.44;;;27.05;30.02
36254;BME280;22291;52.250;21.228;2023-04-20T09:36:51;100715.31;;;27.06;29.19
36254;BME280;22291;52.250;21.228;2023-04-20T09:39:23;100715.17;;;26.78;28.64
36254;BME280;22291;52.250;21.228;2023-04-20T09:41:52;100720.98;;;26.39;28.56
36254;BME280;22291;52.250;21.228;2023-04-20T09:44:19;100714.98;;;26.51;29.11
36254;BME280;22291;52.250;21.228;2023-04-20T09:46:46;100715.16;;;26.26;29.25
36254;BME280;22291;52.250;21.228;2023-04-20T09:49:13;100716.74;;;26.23;29.51
36254;BME280;22291;52.250;21.228;2023-04-20T09:51:42;100720.83;;;26.64;30.66
36254;BME280;22291;52.250;21.228;2023-04-20T09:54:12;100723.80;;;27.26;29.69
36254;BME280;22291;52.250;21.228;2023-04-20T09:56:40;100714.98;;;27.38;27.91
36254;BME280;22291;52.250;21.228;2023-04-20T09:59:07;100714.24;;;27.49;28.31
36254;BME280;22291;52.250;21.228;2023-04-20T10:01:35;100727.05;;;27.58;25.85
36254;BME280;22291;52.250;21.228;2023-04-20T10:04:07;100717.67;;;27.45;25.81
36254;BME280;22291;52.250;21.228;2023-04-20T10:06:39;100720.66;;;27.05;25.26
36254;BME280;22291;52.250;21.228;2023-04-20T10:09:19;100707.84;;;26.76;26.12
36254;BME280;22291;52.250;21.228;2023-04-20T10:11:42;100709.66;;;26.71;26.29
36254;BME280;22291;52.250;21.228;2023-04-20T10:14:20;100698.70;;;26.27;25.66
36254;BME280;22291;52.250;21.228;2023-04-20T10:17:00;100710.63;;;25.83;25.12
36254;BME280;22291;52.250;21.228;2023-04-20T10:19:44;100715.58;;;25.32;26.46
36254;BME280;22291;52.250;21.228;2023-04-20T10:22:24;100704.40;;;25.61;27.44
36254;BME280;22291;52.250;21.228;2023-04-20T10:24:43;100684.83;;;26.27;27.50
36254;BME280;22291;52.250;21.228;2023-04-20T10:27:18;100688.66;;;26.44;26.54
36254;BME280;22291;52.250;21.228;2023-04-20T10:29:46;100701.03;;;26.32;27.00
36254;BME280;22291;52.250;21.228;2023-04-20T10:32:24;100700.16;;;26.46;26.23
36254;BME280;22291;52.250;21.228;2023-04-20T10:35:03;100696.75;;;26.50;26.34
36254;BME280;22291;52.250;21.228;2023-04-20T10:37:32;100689.41;;;26.97;25.98
36254;BME280;22291;52.250;21.228;2023-04-20T10:40:01;100691.40;;;26.96;25.50
36254;BME280;22291;52.250;21.228;2023-04-20T10:42:40;100687.96;;;27.04;26.23
36254;BME280;22291;52.250;21.228;2023-04-20T10:45:01;100683.84;;;26.78;26.16
36254;BME280;22291;52.250;21.228;2023-04-20T10:47:31;100688.45;;;26.95;26.16
36254;BME280;22291;52.250;21.228;2023-04-20T10:50:11;100701.56;;;27.33;24.94
36254;BME280;22291;52.250;21.228;2023-04-20T10:52:40;100681.09;;;27.16;24.91
36254;BME280;22291;52.250;21.228;2023-04-20T10:55:20;100685.38;;;27.43;25.43
36254;BME280;22291;52.250;21.228;2023-04-20T10:57:49;100689.69;;;27.90;25.76
36254;BME280;22291;52.250;21.228;2023-04-20T11:00:19;100680.97;;;28.31;25.75
36254;BME280;22291;52.250;21.228;2023-04-20T11:02:53;100679.31;;;28.84;26.13
36254;BME280;22291;52.250;21.228;2023-04-20T11:05:26;100683.42;;;29.08;25.64
36254;BME280;22291;52.250;21.228;2023-04-20T11:07:54;100679.16;;;29.43;25.05
36254;BME280;22291;52.250;21.228;2023-04-20T11:10:37;100675.63;;;29.51;24.92
36254;BME280;22291;52.250;21.228;2023-04-20T11:13:05;100675.28;;;29.49;24.65
36254;BME280;22291;52.250;21.228;2023-04-20T11:15:33;100677.23;;;29.40;24.54
36254;BME280;22291;52.250;21.228;2023-04-20T11:18:06;100672.89;;;29.39;23.87
36254;BME280;22291;52.250;21.228;2023-04-20T11:20:34;100669.55;;;28.96;23.03
36254;BME280;22291;52.250;21.228;2023-04-20T11:23:01;100667.14;;;28.86;24.12
36254;BME280;22291;52.250;21.228;2023-04-20T11:25:29;100675.20;;;29.01;23.29
36254;BME280;22291;52.250;21.228;2023-04-20T11:28:06;100672.44;;;28.57;23.16
36254;BME280;22291;52.250;21.228;2023-04-20T11:30:38;100673.12;;;28.49;23.34
36254;BME280;22291;52.250;21.228;2023-04-20T11:33:06;100673.83;;;28.57;22.97
36254;BME280;22291;52.250;21.228;2023-04-20T11:35:37;100665.67;;;28.31;22.00
36254;BME280;22291;52.250;21.228;2023-04-20T11:38:07;100633.91;;;27.78;22.06
36254;BME280;22291;52.250;21.228;2023-04-20T11:40:34;100660.03;;;27.37;23.20
36254;BME280;22291;52.250;21.228;2023-04-20T11:43:01;100663.83;;;27.66;23.44
36254;BME280;22291;52.250;21.228;2023-04-20T11:45:32;100665.89;;;27.28;22.96
36254;BME280;22291;52.250;21.228;2023-04-20T11:47:59;100665.28;;;26.71;22.75
36254;BME280;22291;52.250;21.228;2023-04-20T11:50:26;100663.03;;;26.03;23.23
36254;BME280;22291;52.250;21.228;2023-04-20T11:52:53;100663.89;;;25.48;23.40
36254;BME280;22291;52.250;21.228;2023-04-20T11:55:20;100664.05;;;24.94;24.29
36254;BME280;22291;52.250;21.228;2023-04-20T11:57:46;100663.89;;;24.65;24.70
36254;BME280;22291;52.250;21.228;2023-04-20T12:00:14;100667.83;;;24.35;24.57
36254;BME280;22291;52.250;21.228;2023-04-20T12:02:42;100651.22;;;24.17;25.49
36254;BME280;22291;52.250;21.228;2023-04-20T12:05:09;100656.95;;;24.43;25.21
36254;BME280;22291;52.250;21.228;2023-04-20T12:07:36;100651.64;;;24.69;24.87
36254;BME280;22291;52.250;21.228;2023-04-20T12:10:04;100648.21;;;25.02;24.19
36254;BME280;22291;52.250;21.228;2023-04-20T12:12:32;100646.14;;;25.42;24.22
36254;BME280;22291;52.250;21.228;2023-04-20T12:14:58;100641.16;;;25.82;24.20
36254;BME280;22291;52.250;21.228;2023-04-20T12:17:25;100645.16;;;26.11;23.73
36254;BME280;22291;52.250;21.228;2023-04-20T12:19:51;100644.16;;;25.80;23.24
36254;BME280;22291;52.250;21.228;2023-04-20T12:22:17;100649.88;;;25.40;22.18
36254;BME280;22291;52.250;21.228;2023-04-20T12:24:43;100641.91;;;24.91;23.14
36254;BME280;22291;52.250;21.228;2023-04-20T12:27:10;100638.19;;;24.50;23.70
36254;BME280;22291;52.250;21.228;2023-04-20T12:29:36;100634.64;;;24.17;23.31
36254;BME280;22291;52.250;21.228;2023-04-20T12:32:03;100627.91;;;23.85;23.13
36254;BME280;22291;52.250;21.228;2023-04-20T12:34:30;100625.55;;;23.98;23.43
36254;BME280;22291;52.250;21.228;2023-04-20T12:36:56;100633.25;;;24.28;23.25
36254;BME280;22291;52.250;21.228;2023-04-20T12:39:22;100625.75;;;24.46;23.88
36254;BME280;22291;52.250;21.228;2023-04-20T12:41:49;100629.31;;;24.32;24.07
36254;BME280;22291;52.250;21.228;2023-04-20T12:44:15;100625.75;;;24.03;23.94
36254;BME280;22291;52.250;21.228;2023-04-20T12:46:41;100629.76;;;23.60;24.30